Airfield :
LOGIN :

Register | Disclaimer

   EN    FR    IT 

 










Legend :    VFR   Marginal VFR   IFR   Intensive IFR   Very Intensive IFR
Visi :
Ceiling :
>= 8 km
>= 3000ft
5 to 8 km
1000 to 3000 ft
1500m to 5 km
500 to 1000 ft
800 to 1500m
200 to 500 ft
< 800m
< 200 ft
Symbols :   Thunderstorms  Fog  Heavy snow  Heavy precipitations  Wind > 20 kt
SIGMETs :     Misc.  Thunderstorms  Icing  Turbulence  Mountain Waves  Volcanic Ashes







- Airport Elevation : 2661 ft
- IATA code : TEE


DABS - Cheikh Larbi Tebessi

CURRENT METAR :
  • 191500Z 34008KT 9999 FEW033CB SCT040 28/10 Q1020

EXPIRED METARs :
  • 191400Z 34008KT 9999 FEW033CB SCT040TCU 29/13 Q1020
  • 191300Z 34008KT 9999 FEW040TCU 29/12 Q1021

TAF TAF DABS
Valid from the 19 at 12:00 until the 20 at 12:00 UTC


191100Z 1912/2012 27014KT 9999 SCT033 SCT040
PROB30
TEMPO 1912/1924 4000 -TSRA FEW030CB
BECMG 1920/1922 VRB02KT
PROB30
TEMPO 2000/2009 2000 -RA BR SCT008
No reported NOTAMs for that airfield.
2 SIGMETs reported for the Alger FIR (DAAA) :
 
Embedded thunderstorms
DAAA SIGMET 2 VALID 191430/191800 DAMM
DAAA ALGER FIR EMBD TS FCST WI N3454 W00147 - N3522 E00157 - N3501 E00510 - N3256 E00501 - N3300 W00124 - N3454 W00147 - TOP FL380 MOV E 15KT INTSF=
Embedded thunderstorms
DAAA SIGMET 1 VALID 191300/191700 DAMM
DAAA ALGER FIR EMBD TS FCST E OF LINE N3646 E00407 - N3500 E00457 TOP FL380 MOV E 15KT INTSF=



MET'MAP, your aeronautical weather chart ! - Copyright ORBIFLY December 2007 - Disclaimer

ORBIFLY MET'MAP TEAM :

Programming & Development : Alexandra Zaïnal
Concept & Development : Baudouin d'Aumeries
Co-Development & Prog : Marc-Olivier Méhu
Technical & hardware support : Manuel Goepfert

Contact : metmap@orbifly.com




SOURCES & CREDITS :

   NOAA